sensor_id;sensor_type;location;lat;lon;timestamp;P1;durP1;ratioP1;P2;durP2;ratioP2
52266;SDS011;38223;50.940;4.034;2023-08-08T00:01:52;7.10;;;2.12;;
52266;SDS011;38223;50.940;4.034;2023-08-08T00:04:25;7.90;;;2.40;;
52266;SDS011;38223;50.940;4.034;2023-08-08T00:07:00;8.30;;;2.47;;
52266;SDS011;38223;50.940;4.034;2023-08-08T00:09:31;5.75;;;2.22;;
52266;SDS011;38223;50.940;4.034;2023-08-08T00:12:03;9.08;;;2.20;;
52266;SDS011;38223;50.940;4.034;2023-08-08T00:14:37;5.08;;;2.02;;
52266;SDS011;38223;50.940;4.034;2023-08-08T00:17:10;7.25;;;2.52;;
52266;SDS011;38223;50.940;4.034;2023-08-08T00:19:38;6.85;;;2.62;;
52266;SDS011;38223;50.940;4.034;2023-08-08T00:22:09;8.73;;;2.42;;
52266;SDS011;38223;50.940;4.034;2023-08-08T00:24:44;7.45;;;2.30;;
52266;SDS011;38223;50.940;4.034;2023-08-08T00:27:16;8.25;;;2.52;;
52266;SDS011;38223;50.940;4.034;2023-08-08T00:29:53;9.60;;;2.70;;
52266;SDS011;38223;50.940;4.034;2023-08-08T00:32:24;7.05;;;2.80;;
52266;SDS011;38223;50.940;4.034;2023-08-08T00:34:55;7.87;;;3.00;;
52266;SDS011;38223;50.940;4.034;2023-08-08T00:37:28;9.43;;;2.58;;
52266;SDS011;38223;50.940;4.034;2023-08-08T00:40:02;12.63;;;2.92;;
52266;SDS011;38223;50.940;4.034;2023-08-08T00:42:36;13.85;;;3.22;;
52266;SDS011;38223;50.940;4.034;2023-08-08T00:45:08;11.75;;;3.33;;
52266;SDS011;38223;50.940;4.034;2023-08-08T00:47:43;5.97;;;2.35;;
52266;SDS011;38223;50.940;4.034;2023-08-08T00:50:17;6.85;;;2.60;;
52266;SDS011;38223;50.940;4.034;2023-08-08T00:52:50;13.30;;;3.08;;
52266;SDS011;38223;50.940;4.034;2023-08-08T00:55:26;12.23;;;2.70;;
52266;SDS011;38223;50.940;4.034;2023-08-08T00:57:56;12.35;;;3.12;;
52266;SDS011;38223;50.940;4.034;2023-08-08T01:00:28;9.38;;;3.15;;
52266;SDS011;38223;50.940;4.034;2023-08-08T01:02:59;11.12;;;2.85;;
52266;SDS011;38223;50.940;4.034;2023-08-08T01:05:30;16.45;;;2.85;;
52266;SDS011;38223;50.940;4.034;2023-08-08T01:08:04;12.98;;;3.40;;
52266;SDS011;38223;50.940;4.034;2023-08-08T01:10:40;10.72;;;3.72;;
52266;SDS011;38223;50.940;4.034;2023-08-08T01:13:15;13.05;;;3.17;;
52266;SDS011;38223;50.940;4.034;2023-08-08T01:15:53;4.95;;;2.83;;
52266;SDS011;38223;50.940;4.034;2023-08-08T01:18:27;7.97;;;2.42;;
52266;SDS011;38223;50.940;4.034;2023-08-08T01:21:02;19.67;;;3.40;;
52266;SDS011;38223;50.940;4.034;2023-08-08T01:24:00;14.58;;;4.22;;
52266;SDS011;38223;50.940;4.034;2023-08-08T01:26:50;11.95;;;3.30;;
52266;SDS011;38223;50.940;4.034;2023-08-08T01:29:20;13.10;;;3.70;;
52266;SDS011;38223;50.940;4.034;2023-08-08T01:31:55;13.90;;;3.80;;
52266;SDS011;38223;50.940;4.034;2023-08-08T01:34:24;10.45;;;3.27;;
52266;SDS011;38223;50.940;4.034;2023-08-08T01:39:43;14.03;;;3.27;;
52266;SDS011;38223;50.940;4.034;2023-08-08T01:42:15;12.03;;;3.12;;
52266;SDS011;38223;50.940;4.034;2023-08-08T01:44:50;13.15;;;3.55;;
52266;SDS011;38223;50.940;4.034;2023-08-08T01:47:22;12.30;;;2.83;;
52266;SDS011;38223;50.940;4.034;2023-08-08T01:49:54;11.28;;;3.25;;
52266;SDS011;38223;50.940;4.034;2023-08-08T01:52:23;16.15;;;3.35;;
52266;SDS011;38223;50.940;4.034;2023-08-08T01:54:54;14.43;;;3.58;;
52266;SDS011;38223;50.940;4.034;2023-08-08T01:57:26;9.90;;;2.87;;
52266;SDS011;38223;50.940;4.034;2023-08-08T01:59:59;14.17;;;4.07;;
52266;SDS011;38223;50.940;4.034;2023-08-08T02:02:29;11.80;;;3.60;;
52266;SDS011;38223;50.940;4.034;2023-08-08T02:05:03;14.43;;;3.92;;
52266;SDS011;38223;50.940;4.034;2023-08-08T02:07:32;22.48;;;3.85;;
52266;SDS011;38223;50.940;4.034;2023-08-08T02:10:05;15.80;;;4.00;;
52266;SDS011;38223;50.940;4.034;2023-08-08T02:12:43;11.78;;;3.72;;
52266;SDS011;38223;50.940;4.034;2023-08-08T02:15:17;15.15;;;3.75;;
52266;SDS011;38223;50.940;4.034;2023-08-08T02:17:50;18.80;;;4.25;;
52266;SDS011;38223;50.940;4.034;2023-08-08T02:20:21;14.05;;;3.72;;
52266;SDS011;38223;50.940;4.034;2023-08-08T02:22:56;12.88;;;4.00;;
52266;SDS011;38223;50.940;4.034;2023-08-08T02:25:25;14.00;;;3.52;;
52266;SDS011;38223;50.940;4.034;2023-08-08T02:27:54;18.67;;;4.47;;
52266;SDS011;38223;50.940;4.034;2023-08-08T02:30:27;15.40;;;3.72;;
52266;SDS011;38223;50.940;4.034;2023-08-08T02:33:01;15.15;;;3.72;;
52266;SDS011;38223;50.940;4.034;2023-08-08T02:35:28;15.32;;;3.83;;
52266;SDS011;38223;50.940;4.034;2023-08-08T02:38:02;14.28;;;3.55;;
52266;SDS011;38223;50.940;4.034;2023-08-08T02:40:31;17.55;;;4.05;;
52266;SDS011;38223;50.940;4.034;2023-08-08T02:43:04;13.62;;;3.35;;
52266;SDS011;38223;50.940;4.034;2023-08-08T02:45:36;16.25;;;4.12;;
52266;SDS011;38223;50.940;4.034;2023-08-08T02:48:07;14.83;;;4.17;;
52266;SDS011;38223;50.940;4.034;2023-08-08T02:50:40;12.75;;;4.05;;
52266;SDS011;38223;50.940;4.034;2023-08-08T02:53:10;13.93;;;3.90;;
52266;SDS011;38223;50.940;4.034;2023-08-08T02:55:42;14.35;;;4.80;;
52266;SDS011;38223;50.940;4.034;2023-08-08T02:58:17;14.53;;;3.90;;
52266;SDS011;38223;50.940;4.034;2023-08-08T03:00:48;15.00;;;3.75;;
52266;SDS011;38223;50.940;4.034;2023-08-08T03:03:21;17.45;;;4.12;;
52266;SDS011;38223;50.940;4.034;2023-08-08T03:05:52;15.30;;;4.17;;
52266;SDS011;38223;50.940;4.034;2023-08-08T03:08:23;16.40;;;3.98;;
52266;SDS011;38223;50.940;4.034;2023-08-08T03:10:55;14.23;;;4.25;;
52266;SDS011;38223;50.940;4.034;2023-08-08T03:13:26;14.10;;;4.08;;
52266;SDS011;38223;50.940;4.034;2023-08-08T03:15:57;18.10;;;4.50;;
52266;SDS011;38223;50.940;4.034;2023-08-08T03:18:30;14.93;;;4.25;;
52266;SDS011;38223;50.940;4.034;2023-08-08T03:20:59;18.35;;;4.60;;
52266;SDS011;38223;50.940;4.034;2023-08-08T03:23:29;13.68;;;4.75;;
52266;SDS011;38223;50.940;4.034;2023-08-08T03:26:01;18.37;;;4.97;;
52266;SDS011;38223;50.940;4.034;2023-08-08T03:28:39;16.27;;;4.53;;
52266;SDS011;38223;50.940;4.034;2023-08-08T03:31:12;15.38;;;4.72;;
52266;SDS011;38223;50.940;4.034;2023-08-08T03:33:42;12.45;;;4.42;;
52266;SDS011;38223;50.940;4.034;2023-08-08T03:36:20;20.02;;;4.62;;
52266;SDS011;38223;50.940;4.034;2023-08-08T03:38:49;16.95;;;4.47;;
52266;SDS011;38223;50.940;4.034;2023-08-08T03:41:17;14.38;;;4.08;;
52266;SDS011;38223;50.940;4.034;2023-08-08T03:43:48;14.03;;;5.03;;
52266;SDS011;38223;50.940;4.034;2023-08-08T03:46:23;21.62;;;5.58;;
52266;SDS011;38223;50.940;4.034;2023-08-08T03:48:56;18.42;;;4.60;;
52266;SDS011;38223;50.940;4.034;2023-08-08T03:51:30;17.70;;;4.95;;
52266;SDS011;38223;50.940;4.034;2023-08-08T03:54:00;18.27;;;4.58;;
52266;SDS011;38223;50.940;4.034;2023-08-08T03:56:30;16.45;;;4.83;;
52266;SDS011;38223;50.940;4.034;2023-08-08T03:59:03;21.73;;;4.83;;
52266;SDS011;38223;50.940;4.034;2023-08-08T04:01:36;12.65;;;4.33;;
52266;SDS011;38223;50.940;4.034;2023-08-08T04:04:07;18.77;;;4.92;;
52266;SDS011;38223;50.940;4.034;2023-08-08T04:06:43;11.30;;;4.53;;
52266;SDS011;38223;50.940;4.034;2023-08-08T04:09:13;18.27;;;4.65;;
52266;SDS011;38223;50.940;4.034;2023-08-08T04:11:46;22.13;;;4.87;;
52266;SDS011;38223;50.940;4.034;2023-08-08T04:14:17;19.07;;;5.05;;
52266;SDS011;38223;50.940;4.034;2023-08-08T04:16:49;15.35;;;5.28;;
52266;SDS011;38223;50.940;4.034;2023-08-08T04:19:21;15.58;;;4.92;;
52266;SDS011;38223;50.940;4.034;2023-08-08T04:21:52;15.83;;;4.95;;
52266;SDS011;38223;50.940;4.034;2023-08-08T04:24:23;16.93;;;5.92;;
52266;SDS011;38223;50.940;4.034;2023-08-08T04:26:55;13.93;;;5.05;;
52266;SDS011;38223;50.940;4.034;2023-08-08T04:29:25;17.32;;;4.83;;
52266;SDS011;38223;50.940;4.034;2023-08-08T04:31:56;13.68;;;4.12;;
52266;SDS011;38223;50.940;4.034;2023-08-08T04:34:28;15.30;;;4.45;;
52266;SDS011;38223;50.940;4.034;2023-08-08T04:36:58;13.55;;;4.37;;
52266;SDS011;38223;50.940;4.034;2023-08-08T04:39:34;13.08;;;4.62;;
52266;SDS011;38223;50.940;4.034;2023-08-08T04:42:03;18.80;;;4.60;;
52266;SDS011;38223;50.940;4.034;2023-08-08T04:44:36;18.70;;;4.17;;
52266;SDS011;38223;50.940;4.034;2023-08-08T04:47:06;16.87;;;5.40;;
52266;SDS011;38223;50.940;4.034;2023-08-08T04:49:38;16.45;;;4.75;;
52266;SDS011;38223;50.940;4.034;2023-08-08T04:52:08;25.55;;;5.92;;
52266;SDS011;38223;50.940;4.034;2023-08-08T04:54:39;12.68;;;5.42;;
52266;SDS011;38223;50.940;4.034;2023-08-08T04:57:08;14.85;;;4.62;;
52266;SDS011;38223;50.940;4.034;2023-08-08T04:59:39;11.65;;;4.78;;
52266;SDS011;38223;50.940;4.034;2023-08-08T05:02:09;18.32;;;5.28;;
52266;SDS011;38223;50.940;4.034;2023-08-08T05:04:42;14.83;;;5.12;;
52266;SDS011;38223;50.940;4.034;2023-08-08T05:07:12;10.75;;;4.83;;
52266;SDS011;38223;50.940;4.034;2023-08-08T05:09:45;15.03;;;5.03;;
52266;SDS011;38223;50.940;4.034;2023-08-08T05:12:17;15.40;;;5.25;;
52266;SDS011;38223;50.940;4.034;2023-08-08T05:14:54;18.45;;;6.12;;
52266;SDS011;38223;50.940;4.034;2023-08-08T05:17:24;12.82;;;4.70;;
52266;SDS011;38223;50.940;4.034;2023-08-08T05:20:00;11.73;;;4.35;;
52266;SDS011;38223;50.940;4.034;2023-08-08T05:22:29;15.05;;;4.55;;
52266;SDS011;38223;50.940;4.034;2023-08-08T05:25:03;21.62;;;5.08;;
52266;SDS011;38223;50.940;4.034;2023-08-08T05:27:34;15.43;;;4.83;;
52266;SDS011;38223;50.940;4.034;2023-08-08T05:30:03;14.53;;;4.75;;
52266;SDS011;38223;50.940;4.034;2023-08-08T05:32:35;15.48;;;4.55;;
52266;SDS011;38223;50.940;4.034;2023-08-08T05:35:09;19.42;;;5.33;;
52266;SDS011;38223;50.940;4.034;2023-08-08T05:37:42;14.93;;;4.87;;
52266;SDS011;38223;50.940;4.034;2023-08-08T05:40:15;12.95;;;4.70;;
52266;SDS011;38223;50.940;4.034;2023-08-08T05:42:50;12.58;;;5.08;;
52266;SDS011;38223;50.940;4.034;2023-08-08T05:45:22;14.15;;;4.30;;
52266;SDS011;38223;50.940;4.034;2023-08-08T05:47:54;13.83;;;4.03;;
52266;SDS011;38223;50.940;4.034;2023-08-08T05:50:29;16.32;;;4.62;;
52266;SDS011;38223;50.940;4.034;2023-08-08T05:53:00;18.17;;;4.65;;
52266;SDS011;38223;50.940;4.034;2023-08-08T05:55:35;17.85;;;4.05;;
52266;SDS011;38223;50.940;4.034;2023-08-08T05:58:10;15.23;;;4.42;;
52266;SDS011;38223;50.940;4.034;2023-08-08T06:00:43;18.67;;;4.53;;
52266;SDS011;38223;50.940;4.034;2023-08-08T06:03:14;12.75;;;3.83;;
52266;SDS011;38223;50.940;4.034;2023-08-08T06:05:49;18.20;;;4.37;;
52266;SDS011;38223;50.940;4.034;2023-08-08T06:08:20;16.77;;;4.53;;
52266;SDS011;38223;50.940;4.034;2023-08-08T06:13:19;16.87;;;4.47;;
52266;SDS011;38223;50.940;4.034;2023-08-08T06:15:56;15.32;;;3.72;;
52266;SDS011;38223;50.940;4.034;2023-08-08T06:18:27;13.13;;;3.45;;
52266;SDS011;38223;50.940;4.034;2023-08-08T06:21:15;16.52;;;3.45;;
52266;SDS011;38223;50.940;4.034;2023-08-08T06:23:48;16.10;;;3.98;;
52266;SDS011;38223;50.940;4.034;2023-08-08T06:26:21;16.00;;;4.20;;
52266;SDS011;38223;50.940;4.034;2023-08-08T06:28:53;13.25;;;3.27;;
52266;SDS011;38223;50.940;4.034;2023-08-08T06:31:26;15.80;;;3.47;;
52266;SDS011;38223;50.940;4.034;2023-08-08T06:33:57;14.07;;;3.72;;
52266;SDS011;38223;50.940;4.034;2023-08-08T06:36:27;12.20;;;3.22;;
52266;SDS011;38223;50.940;4.034;2023-08-08T06:38:59;9.43;;;3.10;;
52266;SDS011;38223;50.940;4.034;2023-08-08T06:41:31;9.93;;;3.15;;
52266;SDS011;38223;50.940;4.034;2023-08-08T06:44:03;11.63;;;3.25;;
52266;SDS011;38223;50.940;4.034;2023-08-08T06:46:34;13.38;;;3.85;;
52266;SDS011;38223;50.940;4.034;2023-08-08T06:49:04;12.75;;;4.17;;
52266;SDS011;38223;50.940;4.034;2023-08-08T06:51:58;14.73;;;3.40;;
52266;SDS011;38223;50.940;4.034;2023-08-08T06:54:29;13.60;;;3.50;;
52266;SDS011;38223;50.940;4.034;2023-08-08T06:57:01;7.78;;;2.95;;
52266;SDS011;38223;50.940;4.034;2023-08-08T06:59:32;10.58;;;2.62;;
52266;SDS011;38223;50.940;4.034;2023-08-08T07:02:03;6.87;;;3.13;;
52266;SDS011;38223;50.940;4.034;2023-08-08T07:04:39;10.75;;;2.95;;
52266;SDS011;38223;50.940;4.034;2023-08-08T07:07:08;11.55;;;3.35;;
52266;SDS011;38223;50.940;4.034;2023-08-08T07:09:40;9.18;;;2.83;;
52266;SDS011;38223;50.940;4.034;2023-08-08T07:12:09;8.25;;;2.92;;
52266;SDS011;38223;50.940;4.034;2023-08-08T07:14:39;12.60;;;3.27;;
52266;SDS011;38223;50.940;4.034;2023-08-08T07:17:11;14.35;;;3.15;;
52266;SDS011;38223;50.940;4.034;2023-08-08T07:19:45;11.38;;;3.42;;
52266;SDS011;38223;50.940;4.034;2023-08-08T07:22:19;7.58;;;3.12;;
52266;SDS011;38223;50.940;4.034;2023-08-08T07:24:49;13.62;;;4.08;;
52266;SDS011;38223;50.940;4.034;2023-08-08T07:27:22;18.00;;;3.42;;
52266;SDS011;38223;50.940;4.034;2023-08-08T07:29:53;10.72;;;3.33;;
52266;SDS011;38223;50.940;4.034;2023-08-08T07:32:28;6.80;;;3.30;;
52266;SDS011;38223;50.940;4.034;2023-08-08T07:34:56;11.55;;;4.00;;
52266;SDS011;38223;50.940;4.034;2023-08-08T07:37:29;8.30;;;3.50;;
52266;SDS011;38223;50.940;4.034;2023-08-08T07:39:59;9.40;;;3.27;;
52266;SDS011;38223;50.940;4.034;2023-08-08T07:42:31;13.07;;;3.47;;
52266;SDS011;38223;50.940;4.034;2023-08-08T07:45:03;11.20;;;3.27;;
52266;SDS011;38223;50.940;4.034;2023-08-08T07:47:38;8.88;;;3.40;;
52266;SDS011;38223;50.940;4.034;2023-08-08T07:50:07;14.63;;;4.10;;
52266;SDS011;38223;50.940;4.034;2023-08-08T07:52:40;9.93;;;3.55;;
52266;SDS011;38223;50.940;4.034;2023-08-08T07:55:13;12.95;;;3.70;;
52266;SDS011;38223;50.940;4.034;2023-08-08T07:57:47;12.20;;;3.50;;
52266;SDS011;38223;50.940;4.034;2023-08-08T08:00:18;13.78;;;3.85;;
52266;SDS011;38223;50.940;4.034;2023-08-08T08:02:48;14.80;;;3.27;;
52266;SDS011;38223;50.940;4.034;2023-08-08T08:05:19;11.00;;;3.10;;
52266;SDS011;38223;50.940;4.034;2023-08-08T08:07:52;9.40;;;3.45;;
52266;SDS011;38223;50.940;4.034;2023-08-08T08:10:22;11.57;;;3.35;;
52266;SDS011;38223;50.940;4.034;2023-08-08T08:15:28;12.88;;;3.50;;
52266;SDS011;38223;50.940;4.034;2023-08-08T08:17:58;13.00;;;3.30;;
52266;SDS011;38223;50.940;4.034;2023-08-08T08:20:29;12.10;;;3.40;;
52266;SDS011;38223;50.940;4.034;2023-08-08T08:23:01;9.90;;;3.08;;
52266;SDS011;38223;50.940;4.034;2023-08-08T08:25:32;9.48;;;3.37;;
52266;SDS011;38223;50.940;4.034;2023-08-08T08:28:07;9.93;;;3.67;;
52266;SDS011;38223;50.940;4.034;2023-08-08T08:33:26;10.03;;;3.05;;
52266;SDS011;38223;50.940;4.034;2023-08-08T08:35:57;10.28;;;3.22;;
52266;SDS011;38223;50.940;4.034;2023-08-08T08:38:28;8.78;;;3.10;;
52266;SDS011;38223;50.940;4.034;2023-08-08T08:41:03;8.80;;;2.50;;
52266;SDS011;38223;50.940;4.034;2023-08-08T08:43:32;6.95;;;2.70;;
52266;SDS011;38223;50.940;4.034;2023-08-08T08:46:09;7.28;;;2.60;;
52266;SDS011;38223;50.940;4.034;2023-08-08T08:48:38;8.73;;;2.60;;
52266;SDS011;38223;50.940;4.034;2023-08-08T08:51:12;5.03;;;2.50;;
52266;SDS011;38223;50.940;4.034;2023-08-08T08:53:43;6.90;;;2.60;;
52266;SDS011;38223;50.940;4.034;2023-08-08T08:56:19;7.28;;;2.75;;
52266;SDS011;38223;50.940;4.034;2023-08-08T08:58:48;8.13;;;2.45;;
52266;SDS011;38223;50.940;4.034;2023-08-08T09:01:24;4.80;;;2.25;;
52266;SDS011;38223;50.940;4.034;2023-08-08T09:03:54;6.30;;;2.60;;
52266;SDS011;38223;50.940;4.034;2023-08-08T09:06:29;9.88;;;2.37;;
52266;SDS011;38223;50.940;4.034;2023-08-08T09:08:59;6.45;;;3.27;;
52266;SDS011;38223;50.940;4.034;2023-08-08T09:11:28;6.05;;;2.10;;
52266;SDS011;38223;50.940;4.034;2023-08-08T09:14:01;5.25;;;2.58;;
52266;SDS011;38223;50.940;4.034;2023-08-08T09:16:30;6.20;;;2.75;;
52266;SDS011;38223;50.940;4.034;2023-08-08T09:19:04;4.87;;;2.12;;
52266;SDS011;38223;50.940;4.034;2023-08-08T09:21:36;5.95;;;2.47;;
52266;SDS011;38223;50.940;4.034;2023-08-08T09:24:09;4.60;;;2.12;;
52266;SDS011;38223;50.940;4.034;2023-08-08T09:26:40;4.22;;;2.30;;
52266;SDS011;38223;50.940;4.034;2023-08-08T09:29:13;4.40;;;1.85;;
52266;SDS011;38223;50.940;4.034;2023-08-08T09:31:46;4.80;;;2.55;;
52266;SDS011;38223;50.940;4.034;2023-08-08T09:34:24;7.00;;;2.33;;
52266;SDS011;38223;50.940;4.034;2023-08-08T09:36:59;6.22;;;2.45;;
52266;SDS011;38223;50.940;4.034;2023-08-08T09:39:29;5.53;;;2.42;;
52266;SDS011;38223;50.940;4.034;2023-08-08T09:42:01;3.97;;;2.37;;
52266;SDS011;38223;50.940;4.034;2023-08-08T09:44:33;6.05;;;2.30;;
52266;SDS011;38223;50.940;4.034;2023-08-08T09:47:11;6.20;;;2.00;;
52266;SDS011;38223;50.940;4.034;2023-08-08T09:49:36;9.15;;;2.30;;
52266;SDS011;38223;50.940;4.034;2023-08-08T09:52:11;3.90;;;2.62;;
52266;SDS011;38223;50.940;4.034;2023-08-08T09:54:39;6.40;;;2.20;;
52266;SDS011;38223;50.940;4.034;2023-08-08T09:57:15;4.03;;;2.10;;
52266;SDS011;38223;50.940;4.034;2023-08-08T09:59:47;6.67;;;2.98;;
52266;SDS011;38223;50.940;4.034;2023-08-08T10:02:19;4.15;;;2.12;;
52266;SDS011;38223;50.940;4.034;2023-08-08T10:04:55;4.55;;;2.25;;
52266;SDS011;38223;50.940;4.034;2023-08-08T10:07:24;5.83;;;2.50;;
52266;SDS011;38223;50.940;4.034;2023-08-08T10:09:57;7.75;;;2.72;;
52266;SDS011;38223;50.940;4.034;2023-08-08T10:12:29;3.65;;;2.10;;
52266;SDS011;38223;50.940;4.034;2023-08-08T10:15:03;6.28;;;2.35;;
52266;SDS011;38223;50.940;4.034;2023-08-08T10:17:37;5.08;;;2.35;;
52266;SDS011;38223;50.940;4.034;2023-08-08T10:20:11;7.12;;;2.65;;
52266;SDS011;38223;50.940;4.034;2023-08-08T10:22:43;2.67;;;1.85;;
52266;SDS011;38223;50.940;4.034;2023-08-08T10:25:17;3.55;;;1.75;;
52266;SDS011;38223;50.940;4.034;2023-08-08T10:27:49;3.95;;;2.08;;
52266;SDS011;38223;50.940;4.034;2023-08-08T10:30:24;4.47;;;1.90;;
52266;SDS011;38223;50.940;4.034;2023-08-08T10:32:56;4.50;;;2.22;;
52266;SDS011;38223;50.940;4.034;2023-08-08T10:36:10;3.98;;;1.45;;
52266;SDS011;38223;50.940;4.034;2023-08-08T10:38:08;8.10;;;2.25;;
52266;SDS011;38223;50.940;4.034;2023-08-08T10:40:42;5.42;;;1.80;;
52266;SDS011;38223;50.940;4.034;2023-08-08T10:43:15;3.83;;;1.90;;
52266;SDS011;38223;50.940;4.034;2023-08-08T10:45:45;4.97;;;1.98;;
52266;SDS011;38223;50.940;4.034;2023-08-08T10:48:20;5.85;;;1.55;;
52266;SDS011;38223;50.940;4.034;2023-08-08T10:50:50;5.75;;;1.95;;
52266;SDS011;38223;50.940;4.034;2023-08-08T10:53:22;4.12;;;1.75;;
52266;SDS011;38223;50.940;4.034;2023-08-08T10:56:03;4.28;;;1.72;;
52266;SDS011;38223;50.940;4.034;2023-08-08T10:58:35;3.65;;;1.45;;
52266;SDS011;38223;50.940;4.034;2023-08-08T11:01:11;3.92;;;1.72;;
52266;SDS011;38223;50.940;4.034;2023-08-08T11:03:40;3.92;;;1.55;;
52266;SDS011;38223;50.940;4.034;2023-08-08T11:06:16;4.87;;;1.85;;
52266;SDS011;38223;50.940;4.034;2023-08-08T11:08:43;3.45;;;1.60;;
52266;SDS011;38223;50.940;4.034;2023-08-08T11:11:16;2.52;;;1.80;;
52266;SDS011;38223;50.940;4.034;2023-08-08T11:13:51;5.85;;;1.90;;
52266;SDS011;38223;50.940;4.034;2023-08-08T11:16:29;4.78;;;1.62;;
52266;SDS011;38223;50.940;4.034;2023-08-08T11:18:59;3.25;;;1.77;;
52266;SDS011;38223;50.940;4.034;2023-08-08T11:21:33;3.15;;;2.08;;
52266;SDS011;38223;50.940;4.034;2023-08-08T11:24:04;6.17;;;1.87;;
52266;SDS011;38223;50.940;4.034;2023-08-08T11:26:35;2.83;;;1.95;;
52266;SDS011;38223;50.940;4.034;2023-08-08T11:29:10;5.53;;;2.30;;
52266;SDS011;38223;50.940;4.034;2023-08-08T11:31:43;4.78;;;1.92;;
52266;SDS011;38223;50.940;4.034;2023-08-08T11:34:17;3.17;;;1.40;;
52266;SDS011;38223;50.940;4.034;2023-08-08T11:36:46;4.67;;;1.92;;
52266;SDS011;38223;50.940;4.034;2023-08-08T11:39:19;4.00;;;1.77;;
52266;SDS011;38223;50.940;4.034;2023-08-08T11:41:51;3.05;;;1.40;;
52266;SDS011;38223;50.940;4.034;2023-08-08T11:44:25;2.40;;;1.20;;
52266;SDS011;38223;50.940;4.034;2023-08-08T11:47:05;3.98;;;1.15;;
52266;SDS011;38223;50.940;4.034;2023-08-08T11:49:29;2.77;;;1.42;;
52266;SDS011;38223;50.940;4.034;2023-08-08T11:52:02;3.17;;;1.30;;
52266;SDS011;38223;50.940;4.034;2023-08-08T11:54:32;3.95;;;1.20;;
52266;SDS011;38223;50.940;4.034;2023-08-08T11:57:05;2.33;;;1.20;;
52266;SDS011;38223;50.940;4.034;2023-08-08T11:59:42;2.27;;;1.20;;
52266;SDS011;38223;50.940;4.034;2023-08-08T12:02:12;2.87;;;1.22;;
52266;SDS011;38223;50.940;4.034;2023-08-08T12:04:44;2.47;;;1.10;;
52266;SDS011;38223;50.940;4.034;2023-08-08T12:07:17;3.00;;;1.30;;
52266;SDS011;38223;50.940;4.034;2023-08-08T12:09:50;1.80;;;1.05;;
52266;SDS011;38223;50.940;4.034;2023-08-08T12:12:25;3.17;;;1.20;;
52266;SDS011;38223;50.940;4.034;2023-08-08T12:15:03;2.30;;;1.22;;
52266;SDS011;38223;50.940;4.034;2023-08-08T12:17:37;2.37;;;1.00;;
52266;SDS011;38223;50.940;4.034;2023-08-08T12:20:09;1.67;;;1.00;;
52266;SDS011;38223;50.940;4.034;2023-08-08T12:22:41;1.72;;;0.80;;
52266;SDS011;38223;50.940;4.034;2023-08-08T12:25:14;2.02;;;0.88;;
52266;SDS011;38223;50.940;4.034;2023-08-08T12:27:47;1.17;;;0.70;;
52266;SDS011;38223;50.940;4.034;2023-08-08T12:30:18;3.08;;;1.25;;
52266;SDS011;38223;50.940;4.034;2023-08-08T12:32:53;1.62;;;1.07;;
52266;SDS011;38223;50.940;4.034;2023-08-08T12:35:23;3.05;;;0.90;;
52266;SDS011;38223;50.940;4.034;2023-08-08T12:37:56;4.30;;;0.75;;
52266;SDS011;38223;50.940;4.034;2023-08-08T12:40:25;2.08;;;0.80;;
52266;SDS011;38223;50.940;4.034;2023-08-08T12:42:58;1.95;;;0.88;;
52266;SDS011;38223;50.940;4.034;2023-08-08T12:45:30;3.37;;;0.90;;
52266;SDS011;38223;50.940;4.034;2023-08-08T12:48:03;2.22;;;0.80;;
52266;SDS011;38223;50.940;4.034;2023-08-08T12:50:34;3.30;;;0.95;;
52266;SDS011;38223;50.940;4.034;2023-08-08T12:53:07;3.00;;;0.90;;
52266;SDS011;38223;50.940;4.034;2023-08-08T12:55:38;1.67;;;0.98;;
52266;SDS011;38223;50.940;4.034;2023-08-08T12:58:17;4.45;;;1.37;;
52266;SDS011;38223;50.940;4.034;2023-08-08T13:00:47;4.08;;;0.70;;
52266;SDS011;38223;50.940;4.034;2023-08-08T13:03:17;2.67;;;0.90;;
52266;SDS011;38223;50.940;4.034;2023-08-08T13:05:52;3.58;;;1.20;;
52266;SDS011;38223;50.940;4.034;2023-08-08T13:08:21;3.30;;;1.30;;
52266;SDS011;38223;50.940;4.034;2023-08-08T13:11:01;2.67;;;1.15;;
52266;SDS011;38223;50.940;4.034;2023-08-08T13:13:31;3.55;;;1.02;;
52266;SDS011;38223;50.940;4.034;2023-08-08T13:16:03;2.62;;;1.10;;
52266;SDS011;38223;50.940;4.034;2023-08-08T13:18:35;2.02;;;0.90;;
52266;SDS011;38223;50.940;4.034;2023-08-08T13:21:09;2.95;;;1.20;;
52266;SDS011;38223;50.940;4.034;2023-08-08T13:23:40;2.00;;;1.00;;
52266;SDS011;38223;50.940;4.034;2023-08-08T13:26:14;2.70;;;1.02;;
52266;SDS011;38223;50.940;4.034;2023-08-08T13:28:49;2.83;;;0.80;;
52266;SDS011;38223;50.940;4.034;2023-08-08T13:31:21;2.27;;;1.05;;
52266;SDS011;38223;50.940;4.034;2023-08-08T13:33:52;1.30;;;0.80;;
52266;SDS011;38223;50.940;4.034;2023-08-08T13:36:25;3.75;;;0.90;;
52266;SDS011;38223;50.940;4.034;2023-08-08T13:38:57;1.45;;;0.80;;
52266;SDS011;38223;50.940;4.034;2023-08-08T13:41:29;2.52;;;0.80;;
52266;SDS011;38223;50.940;4.034;2023-08-08T13:43:59;1.25;;;0.75;;
52266;SDS011;38223;50.940;4.034;2023-08-08T13:46:36;1.52;;;1.07;;
52266;SDS011;38223;50.940;4.034;2023-08-08T13:49:06;1.45;;;0.90;;
52266;SDS011;38223;50.940;4.034;2023-08-08T13:51:39;2.20;;;0.90;;
52266;SDS011;38223;50.940;4.034;2023-08-08T13:54:11;2.20;;;0.80;;
52266;SDS011;38223;50.940;4.034;2023-08-08T13:56:41;1.70;;;0.90;;
52266;SDS011;38223;50.940;4.034;2023-08-08T13:59:18;1.77;;;0.90;;
52266;SDS011;38223;50.940;4.034;2023-08-08T14:01:53;2.83;;;1.05;;
52266;SDS011;38223;50.940;4.034;2023-08-08T14:04:22;1.50;;;0.75;;
52266;SDS011;38223;50.940;4.034;2023-08-08T14:07:02;1.77;;;0.80;;
52266;SDS011;38223;50.940;4.034;2023-08-08T14:09:32;2.27;;;0.90;;
52266;SDS011;38223;50.940;4.034;2023-08-08T14:12:07;2.85;;;0.90;;
52266;SDS011;38223;50.940;4.034;2023-08-08T14:14:44;1.40;;;0.90;;
52266;SDS011;38223;50.940;4.034;2023-08-08T14:17:19;1.87;;;0.75;;
52266;SDS011;38223;50.940;4.034;2023-08-08T14:19:49;2.47;;;0.70;;
52266;SDS011;38223;50.940;4.034;2023-08-08T14:22:23;1.95;;;0.93;;
52266;SDS011;38223;50.940;4.034;2023-08-08T14:24:53;3.25;;;1.22;;
52266;SDS011;38223;50.940;4.034;2023-08-08T14:27:27;1.50;;;0.80;;
52266;SDS011;38223;50.940;4.034;2023-08-08T14:29:57;2.80;;;1.07;;
52266;SDS011;38223;50.940;4.034;2023-08-08T14:32:33;2.50;;;0.80;;
52266;SDS011;38223;50.940;4.034;2023-08-08T14:35:05;1.62;;;0.90;;
52266;SDS011;38223;50.940;4.034;2023-08-08T14:37:38;2.52;;;1.00;;
52266;SDS011;38223;50.940;4.034;2023-08-08T14:40:10;1.87;;;0.88;;
52266;SDS011;38223;50.940;4.034;2023-08-08T14:42:40;1.35;;;0.70;;
52266;SDS011;38223;50.940;4.034;2023-08-08T14:45:15;2.30;;;1.07;;
52266;SDS011;38223;50.940;4.034;2023-08-08T14:47:49;1.45;;;0.98;;
52266;SDS011;38223;50.940;4.034;2023-08-08T14:50:22;5.45;;;1.10;;
52266;SDS011;38223;50.940;4.034;2023-08-08T14:52:57;1.72;;;0.90;;
52266;SDS011;38223;50.940;4.034;2023-08-08T14:55:31;1.32;;;0.60;;
52266;SDS011;38223;50.940;4.034;2023-08-08T14:58:05;1.07;;;0.90;;
52266;SDS011;38223;50.940;4.034;2023-08-08T15:00:36;1.87;;;0.90;;
52266;SDS011;38223;50.940;4.034;2023-08-08T15:03:14;2.00;;;0.85;;
52266;SDS011;38223;50.940;4.034;2023-08-08T15:05:46;4.05;;;1.02;;
52266;SDS011;38223;50.940;4.034;2023-08-08T15:08:18;2.20;;;0.90;;
52266;SDS011;38223;50.940;4.034;2023-08-08T15:10:47;1.32;;;0.80;;
52266;SDS011;38223;50.940;4.034;2023-08-08T15:13:21;3.50;;;1.00;;
52266;SDS011;38223;50.940;4.034;2023-08-08T15:15:54;1.65;;;0.90;;
52266;SDS011;38223;50.940;4.034;2023-08-08T15:18:24;1.98;;;1.10;;
52266;SDS011;38223;50.940;4.034;2023-08-08T15:20:56;2.77;;;1.10;;
52266;SDS011;38223;50.940;4.034;2023-08-08T15:23:29;3.50;;;1.05;;